createdAt,value
2023-01-08T00:01:11.077Z,35.24
2023-01-08T00:03:38.132Z,35.24
2023-01-08T00:06:06.254Z,35.31
2023-01-08T00:08:33.033Z,35.43
2023-01-08T00:10:59.725Z,35.38
2023-01-08T00:13:26.400Z,35.39
2023-01-08T00:15:52.976Z,35.45
2023-01-08T00:18:19.604Z,35.46
2023-01-08T00:20:46.389Z,35.55
2023-01-08T00:23:16.876Z,35.51
2023-01-08T00:25:43.448Z,35.51
2023-01-08T00:28:10.053Z,35.59
2023-01-08T00:30:36.825Z,35.54
2023-01-08T00:33:03.488Z,35.68
2023-01-08T00:35:30.055Z,35.58
2023-01-08T00:37:56.653Z,35.67
2023-01-08T00:40:23.231Z,35.81
2023-01-08T00:42:49.818Z,35.76
2023-01-08T00:45:16.539Z,35.56
2023-01-08T00:47:43.230Z,35.71
2023-01-08T00:50:10.087Z,35.76
2023-01-08T00:52:36.643Z,35.75
2023-01-08T00:55:03.525Z,35.86
2023-01-08T00:57:34.670Z,36.01
2023-01-08T01:00:01.266Z,35.84
2023-01-08T01:02:27.872Z,35.84
2023-01-08T01:04:54.504Z,35.94
2023-01-08T01:07:21.051Z,36.00
2023-01-08T01:09:47.631Z,35.98
2023-01-08T01:12:14.315Z,35.71
2023-01-08T01:14:40.953Z,35.88
2023-01-08T01:17:07.483Z,36.05
2023-01-08T01:19:34.049Z,36.01
2023-01-08T01:22:00.594Z,36.15
2023-01-08T01:24:27.797Z,36.06
2023-01-08T01:26:56.344Z,36.06
2023-01-08T01:29:23.470Z,36.12
2023-01-08T01:31:49.982Z,36.14
2023-01-08T01:34:16.557Z,36.17
2023-01-08T01:36:43.118Z,36.38
2023-01-08T01:39:09.711Z,36.31
2023-01-08T01:41:43.200Z,36.39
2023-01-08T01:44:34.291Z,36.26
2023-01-08T01:47:01.513Z,36.45
2023-01-08T01:49:28.093Z,36.53
2023-01-08T01:51:56.170Z,36.58
2023-01-08T01:54:22.735Z,36.60
2023-01-08T01:56:49.292Z,36.45
2023-01-08T01:59:16.025Z,36.23
2023-01-08T02:01:42.763Z,36.59
2023-01-08T02:04:11.279Z,36.40
2023-01-08T02:06:48.362Z,36.88
2023-01-08T02:09:21.278Z,36.45
2023-01-08T02:12:13.657Z,36.34
2023-01-08T02:14:52.035Z,36.66
2023-01-08T02:17:24.777Z,36.63
2023-01-08T02:20:10.126Z,36.43
2023-01-08T02:23:06.023Z,36.37
2023-01-08T02:26:09.958Z,36.31
2023-01-08T02:28:53.768Z,36.45
2023-01-08T02:31:20.553Z,36.70
2023-01-08T02:33:47.141Z,36.59
2023-01-08T02:36:41.812Z,36.48
2023-01-08T02:39:30.329Z,36.63
2023-01-08T02:42:14.992Z,36.65
2023-01-08T02:45:25.017Z,36.53
2023-01-08T02:47:56.865Z,36.73
2023-01-08T02:50:39.466Z,36.63
2023-01-08T02:53:25.230Z,36.57
2023-01-08T02:55:53.414Z,36.73
2023-01-08T02:58:20.017Z,36.69
2023-01-08T03:00:46.969Z,36.73
2023-01-08T03:03:22.315Z,36.88
2023-01-08T03:05:51.583Z,36.92
2023-01-08T03:08:18.283Z,37.07
2023-01-08T03:10:46.080Z,37.00
2023-01-08T03:13:16.006Z,37.03
2023-01-08T03:15:53.770Z,36.96
2023-01-08T03:18:22.148Z,36.97
2023-01-08T03:20:48.841Z,37.26
2023-01-08T03:23:15.399Z,37.32
2023-01-08T03:25:42.482Z,37.27
2023-01-08T03:28:13.515Z,37.48
2023-01-08T03:30:40.259Z,37.54
2023-01-08T03:33:06.843Z,37.34
2023-01-08T03:35:33.356Z,37.39
2023-01-08T03:38:30.967Z,37.46
2023-01-08T03:41:00.033Z,37.45
2023-01-08T03:43:26.708Z,37.59
2023-01-08T03:45:58.316Z,37.68
2023-01-08T03:48:25.552Z,37.54
2023-01-08T03:50:52.139Z,37.97
2023-01-08T03:53:18.650Z,37.91
2023-01-08T03:55:45.157Z,37.98
2023-01-08T03:58:11.729Z,37.79
2023-01-08T04:00:38.340Z,37.93
2023-01-08T04:03:05.941Z,37.95
2023-01-08T04:05:32.650Z,37.89
2023-01-08T04:07:59.205Z,38.28
2023-01-08T04:10:25.805Z,38.50
2023-01-08T04:12:52.596Z,38.44
2023-01-08T04:15:19.146Z,38.39
2023-01-08T04:17:45.639Z,38.42
2023-01-08T04:20:12.202Z,38.24
2023-01-08T04:22:38.788Z,38.40
2023-01-08T04:25:05.558Z,38.40
2023-01-08T04:27:32.112Z,38.53
2023-01-08T04:29:58.626Z,38.54
2023-01-08T04:32:25.245Z,38.47
2023-01-08T04:34:51.760Z,38.55
2023-01-08T04:37:18.375Z,38.83
2023-01-08T04:39:44.958Z,39.00
2023-01-08T04:42:11.515Z,38.88
2023-01-08T04:44:38.108Z,38.87
2023-01-08T04:47:04.666Z,38.61
2023-01-08T04:49:31.173Z,39.09
2023-01-08T04:51:57.749Z,38.70
2023-01-08T04:54:24.324Z,38.98
2023-01-08T04:56:51.718Z,38.85
2023-01-08T04:59:18.556Z,38.92
2023-01-08T05:01:45.221Z,38.89
2023-01-08T05:04:11.840Z,38.87
2023-01-08T05:06:38.375Z,38.99
2023-01-08T05:09:04.952Z,38.88
2023-01-08T05:11:31.528Z,39.02
2023-01-08T05:13:58.073Z,38.88
2023-01-08T05:16:24.652Z,38.77
2023-01-08T05:18:51.239Z,38.78
2023-01-08T05:21:18.339Z,39.10
2023-01-08T05:23:46.779Z,38.91
2023-01-08T05:26:13.351Z,38.70
2023-01-08T05:28:39.867Z,38.86
2023-01-08T05:31:06.518Z,39.10
2023-01-08T05:33:33.053Z,39.00
2023-01-08T05:35:59.592Z,39.01
2023-01-08T05:38:26.131Z,39.01
2023-01-08T05:40:53.198Z,38.89
2023-01-08T05:43:19.742Z,39.01
2023-01-08T05:45:46.282Z,39.28
2023-01-08T05:48:12.838Z,39.18
2023-01-08T05:50:39.398Z,39.23
2023-01-08T05:53:07.346Z,38.94
2023-01-08T05:55:34.099Z,39.23
2023-01-08T05:58:02.523Z,39.05
2023-01-08T06:00:29.339Z,39.15
2023-01-08T06:02:55.964Z,39.09
2023-01-08T06:05:22.573Z,39.17
2023-01-08T06:07:49.080Z,39.11
2023-01-08T06:10:15.777Z,39.09
2023-01-08T06:12:42.295Z,38.92
2023-01-08T06:15:12.962Z,38.92
2023-01-08T06:17:39.547Z,39.04
2023-01-08T06:20:06.382Z,39.27
2023-01-08T06:22:33.661Z,39.17
2023-01-08T06:25:00.434Z,39.31
2023-01-08T06:27:26.967Z,39.22
2023-01-08T06:29:53.542Z,38.82
2023-01-08T06:32:20.095Z,38.78
2023-01-08T06:34:46.588Z,38.65
2023-01-08T06:37:13.106Z,38.56
2023-01-08T06:39:39.873Z,38.55
2023-01-08T06:42:06.477Z,38.73
2023-01-08T06:44:33.048Z,38.73
2023-01-08T06:47:00.685Z,38.63
2023-01-08T06:49:27.255Z,38.83
2023-01-08T06:51:53.813Z,38.56
2023-01-08T06:54:20.353Z,38.83
2023-01-08T06:56:54.316Z,38.63
2023-01-08T06:59:21.262Z,38.83
2023-01-08T07:01:47.955Z,38.70
2023-01-08T07:04:14.611Z,38.63
2023-01-08T07:06:41.141Z,38.78
2023-01-08T07:09:07.691Z,38.79
2023-01-08T07:11:34.264Z,38.66
2023-01-08T07:14:00.830Z,38.63
2023-01-08T07:16:27.397Z,38.59
2023-01-08T07:18:54.051Z,38.63
2023-01-08T07:21:22.486Z,38.85
2023-01-08T07:23:49.682Z,38.86
2023-01-08T07:26:16.209Z,38.67
2023-01-08T07:28:42.921Z,38.66
2023-01-08T07:31:09.680Z,38.73
2023-01-08T07:33:36.352Z,38.60
2023-01-08T07:36:02.895Z,38.66
2023-01-08T07:38:29.445Z,38.55
2023-01-08T07:40:57.887Z,38.75
2023-01-08T07:43:25.188Z,38.81
2023-01-08T07:45:51.871Z,38.86
2023-01-08T07:48:21.667Z,39.02
2023-01-08T07:50:48.521Z,39.47
2023-01-08T07:53:17.240Z,39.14
2023-01-08T07:55:43.920Z,37.05
2023-01-08T07:58:13.845Z,37.32
2023-01-08T08:00:41.025Z,37.21
2023-01-08T08:03:11.295Z,36.70
2023-01-08T08:06:37.555Z,40.15
2023-01-08T08:09:04.094Z,41.57
2023-01-08T08:11:30.636Z,42.49
2023-01-08T08:13:57.220Z,43.08
2023-01-08T08:16:23.890Z,43.39
2023-01-08T08:18:50.468Z,44.17
2023-01-08T08:21:17.037Z,44.42
2023-01-08T08:23:43.636Z,44.70
2023-01-08T08:26:10.192Z,44.76
2023-01-08T08:28:36.853Z,44.75
2023-01-08T08:31:03.439Z,44.91
2023-01-08T08:33:30.105Z,45.02
2023-01-08T08:35:56.766Z,45.28
2023-01-08T08:38:24.903Z,45.36
2023-01-08T08:40:51.467Z,45.39
2023-01-08T08:43:18.068Z,45.55
2023-01-08T08:45:44.582Z,45.71
2023-01-08T08:48:11.361Z,45.81
2023-01-08T08:50:37.977Z,45.88
2023-01-08T08:53:05.483Z,45.84
2023-01-08T08:55:32.410Z,46.19
2023-01-08T08:58:04.331Z,45.98
2023-01-08T09:00:31.066Z,46.28
2023-01-08T09:02:57.742Z,46.15
2023-01-08T09:05:24.441Z,46.12
2023-01-08T09:07:51.092Z,46.25
2023-01-08T09:10:17.675Z,46.09
2023-01-08T09:12:44.275Z,46.04
2023-01-08T09:15:11.477Z,45.96
2023-01-08T09:17:38.128Z,45.94
2023-01-08T09:20:05.559Z,46.09
2023-01-08T09:22:32.142Z,46.06
2023-01-08T09:24:59.877Z,46.04
2023-01-08T09:27:26.443Z,46.15
2023-01-08T09:29:52.956Z,46.17
2023-01-08T09:32:19.514Z,46.48
2023-01-08T09:34:46.072Z,46.45
2023-01-08T09:37:12.629Z,46.60
2023-01-08T09:39:41.135Z,46.50
2023-01-08T09:42:10.893Z,46.73
2023-01-08T09:44:38.865Z,46.83
2023-01-08T09:47:06.440Z,46.73
2023-01-08T09:49:44.082Z,46.37
2023-01-08T09:52:12.054Z,42.49
2023-01-08T09:54:38.885Z,41.47
2023-01-08T09:57:05.507Z,41.83
2023-01-08T09:59:32.032Z,44.00
2023-01-08T10:01:58.727Z,45.03
2023-01-08T10:04:26.859Z,45.01
2023-01-08T10:06:54.743Z,44.96
2023-01-08T10:09:26.646Z,45.37
2023-01-08T10:11:53.398Z,45.52
2023-01-08T10:14:24.922Z,45.73
2023-01-08T10:17:00.795Z,45.71
2023-01-08T10:19:27.521Z,45.71
2023-01-08T10:21:54.144Z,45.74
2023-01-08T10:24:41.637Z,45.80
2023-01-08T10:27:28.434Z,45.91
2023-01-08T10:30:05.091Z,45.71
2023-01-08T10:32:34.609Z,45.71
2023-01-08T10:35:04.544Z,45.81
2023-01-08T10:37:42.398Z,45.86
2023-01-08T10:40:30.874Z,45.72
2023-01-08T10:43:04.571Z,45.80
2023-01-08T10:45:31.143Z,45.52
2023-01-08T10:47:59.740Z,45.69
2023-01-08T10:50:29.223Z,45.42
2023-01-08T10:53:00.388Z,45.45
2023-01-08T10:55:29.020Z,45.57
2023-01-08T10:57:59.555Z,45.43
2023-01-08T11:00:27.360Z,45.27
2023-01-08T11:02:54.045Z,45.46
2023-01-08T11:05:20.609Z,45.59
2023-01-08T11:07:52.195Z,45.13
2023-01-08T11:10:25.777Z,45.34
2023-01-08T11:12:56.792Z,45.08
2023-01-08T11:15:34.478Z,45.10
2023-01-08T11:18:10.307Z,44.98
2023-01-08T11:20:37.046Z,44.43
2023-01-08T11:23:19.829Z,43.85
2023-01-08T11:26:12.550Z,43.82
2023-01-08T11:28:39.023Z,43.55
2023-01-08T11:31:26.271Z,43.08
2023-01-08T11:33:56.914Z,43.24
2023-01-08T11:36:34.607Z,43.21
2023-01-08T11:39:02.061Z,42.98
2023-01-08T11:41:36.583Z,43.06
2023-01-08T11:44:19.267Z,43.48
2023-01-08T11:46:52.025Z,43.58
2023-01-08T11:49:18.577Z,43.34
2023-01-08T11:52:13.509Z,43.35
2023-01-08T11:55:03.203Z,43.33
2023-01-08T11:57:48.238Z,42.96
2023-01-08T12:00:53.217Z,43.15
2023-01-08T12:04:02.013Z,43.69
2023-01-08T12:06:52.423Z,43.70
2023-01-08T12:09:24.838Z,43.25
2023-01-08T12:12:15.060Z,43.33
2023-01-08T12:14:50.728Z,43.61
2023-01-08T12:17:44.865Z,40.92
2023-01-08T12:20:17.347Z,41.82
2023-01-08T12:22:55.953Z,42.53
2023-01-08T12:25:26.438Z,42.21
2023-01-08T12:28:25.944Z,42.72
2023-01-08T12:31:34.541Z,42.93
2023-01-08T12:34:11.227Z,43.19
2023-01-08T12:36:44.276Z,42.95
2023-01-08T12:39:12.470Z,43.36
2023-01-08T12:41:39.246Z,42.60
2023-01-08T12:44:10.109Z,43.06
2023-01-08T12:46:38.651Z,43.01
2023-01-08T12:49:05.838Z,42.98
2023-01-08T12:52:00.539Z,43.16
2023-01-08T12:54:48.941Z,43.31
2023-01-08T12:57:32.017Z,43.00
2023-01-08T13:00:17.496Z,43.12
2023-01-08T13:02:57.072Z,43.11
2023-01-08T13:05:23.613Z,43.52
2023-01-08T13:07:54.563Z,43.17
2023-01-08T13:10:32.193Z,43.53
2023-01-08T13:12:58.991Z,43.55
2023-01-08T13:15:26.442Z,43.92
2023-01-08T13:17:57.405Z,43.86
2023-01-08T13:20:25.911Z,43.67
2023-01-08T13:22:56.888Z,44.46
2023-01-08T13:25:30.607Z,44.63
2023-01-08T13:27:57.201Z,44.65
2023-01-08T13:30:35.044Z,44.86
2023-01-08T13:33:01.658Z,44.89
2023-01-08T13:35:31.858Z,44.86
2023-01-08T13:38:10.660Z,44.39
2023-01-08T13:40:43.179Z,41.62
2023-01-08T13:43:17.927Z,39.92
2023-01-08T13:45:44.799Z,41.00
2023-01-08T13:48:22.183Z,41.46
2023-01-08T13:50:48.781Z,42.06
2023-01-08T13:53:15.527Z,41.75
2023-01-08T13:55:43.404Z,41.86
2023-01-08T13:58:28.557Z,41.91
2023-01-08T14:00:56.389Z,42.15
2023-01-08T14:03:29.774Z,42.37
2023-01-08T14:06:18.178Z,42.59
2023-01-08T14:08:58.416Z,39.25
2023-01-08T14:11:54.065Z,39.32
2023-01-08T14:14:21.720Z,38.03
2023-01-08T14:16:48.828Z,37.80
2023-01-08T14:19:17.933Z,39.17
2023-01-08T14:21:51.924Z,41.04
2023-01-08T14:24:18.604Z,41.24
2023-01-08T14:26:51.304Z,42.13
2023-01-08T14:29:20.684Z,42.54
2023-01-08T14:31:52.008Z,42.78
2023-01-08T14:34:19.687Z,42.87
2023-01-08T14:36:46.273Z,43.00
2023-01-08T14:39:45.813Z,43.40
2023-01-08T14:42:42.267Z,43.73
2023-01-08T14:45:19.366Z,43.80
2023-01-08T14:47:49.288Z,43.88
2023-01-08T14:50:19.743Z,43.85
2023-01-08T14:52:46.467Z,43.91
2023-01-08T14:55:18.672Z,43.83
2023-01-08T14:57:53.662Z,43.79
2023-01-08T15:00:25.478Z,43.93
2023-01-08T15:02:52.094Z,43.76
2023-01-08T15:05:29.513Z,44.16
2023-01-08T15:07:59.079Z,44.22
2023-01-08T15:10:36.005Z,44.34
2023-01-08T15:13:05.135Z,44.12
2023-01-08T15:15:31.754Z,43.99
2023-01-08T15:17:58.403Z,44.10
2023-01-08T15:20:31.205Z,44.43
2023-01-08T15:22:58.053Z,44.51
2023-01-08T15:25:28.424Z,44.63
2023-01-08T15:27:58.716Z,44.92
2023-01-08T15:30:28.754Z,44.97
2023-01-08T15:32:55.391Z,44.69
2023-01-08T15:35:25.728Z,45.16
2023-01-08T15:37:52.434Z,45.20
2023-01-08T15:40:19.134Z,45.03
2023-01-08T15:43:04.373Z,45.13
2023-01-08T15:45:34.312Z,45.30
2023-01-08T15:48:01.100Z,45.31
2023-01-08T15:50:27.764Z,45.59
2023-01-08T15:52:56.386Z,45.89
2023-01-08T15:55:23.955Z,45.98
2023-01-08T15:57:50.866Z,46.04
2023-01-08T16:00:18.942Z,46.08
2023-01-08T16:02:47.451Z,46.40
2023-01-08T16:05:14.950Z,46.55
2023-01-08T16:07:41.521Z,47.02
2023-01-08T16:10:09.167Z,46.75
2023-01-08T16:12:36.084Z,46.84
2023-01-08T16:15:02.808Z,47.12
2023-01-08T16:17:30.011Z,47.08
2023-01-08T16:19:56.569Z,46.96
2023-01-08T16:22:23.220Z,46.85
2023-01-08T16:24:49.862Z,46.88
2023-01-08T16:27:16.510Z,46.83
2023-01-08T16:29:43.121Z,46.69
2023-01-08T16:32:09.794Z,46.94
2023-01-08T16:34:36.425Z,46.79
2023-01-08T16:37:03.149Z,46.77
2023-01-08T16:39:29.791Z,46.91
2023-01-08T16:41:56.413Z,46.99
2023-01-08T16:44:26.268Z,46.81
2023-01-08T16:46:53.797Z,46.85
2023-01-08T16:49:20.515Z,46.52
2023-01-08T16:51:47.305Z,46.68
2023-01-08T16:54:14.690Z,46.82
2023-01-08T16:56:41.434Z,46.61
2023-01-08T16:59:18.193Z,46.63
2023-01-08T17:01:48.849Z,46.83
2023-01-08T17:04:15.540Z,46.81
2023-01-08T17:06:42.264Z,46.87
2023-01-08T17:09:11.305Z,46.85
2023-01-08T17:11:38.246Z,47.23
2023-01-08T17:14:04.969Z,47.01
2023-01-08T17:16:31.693Z,47.03
2023-01-08T17:18:58.358Z,47.07
2023-01-08T17:21:25.051Z,47.15
2023-01-08T17:23:51.787Z,47.01
2023-01-08T17:26:18.371Z,47.17
2023-01-08T17:28:45.140Z,47.02
2023-01-08T17:31:21.473Z,47.11
2023-01-08T17:33:50.246Z,46.97
2023-01-08T17:36:25.478Z,47.01
2023-01-08T17:38:54.870Z,47.13
2023-01-08T17:41:44.304Z,47.21
2023-01-08T17:44:14.772Z,47.29
2023-01-08T17:46:44.887Z,47.25
2023-01-08T17:49:15.844Z,47.14
2023-01-08T17:51:45.795Z,47.38
2023-01-08T17:54:15.443Z,47.38
2023-01-08T17:56:43.461Z,47.26
2023-01-08T17:59:13.904Z,47.43
2023-01-08T18:01:42.262Z,47.31
2023-01-08T18:04:10.190Z,47.58
2023-01-08T18:06:37.216Z,47.64
2023-01-08T18:09:09.127Z,47.62
2023-01-08T18:11:36.805Z,47.43
2023-01-08T18:14:05.584Z,47.55
2023-01-08T18:16:38.291Z,47.40
2023-01-08T18:19:11.451Z,47.61
2023-01-08T18:21:44.788Z,47.60
2023-01-08T18:24:13.696Z,47.55
2023-01-08T18:26:40.965Z,47.74
2023-01-08T18:29:07.636Z,47.37
2023-01-08T18:31:34.969Z,47.67
2023-01-08T18:34:03.766Z,47.73
2023-01-08T18:36:30.961Z,47.64
2023-01-08T18:38:57.783Z,47.78
2023-01-08T18:41:43.166Z,47.54
2023-01-08T18:44:10.988Z,47.39
2023-01-08T18:46:37.802Z,47.19
2023-01-08T18:49:04.991Z,47.26
2023-01-08T18:51:31.709Z,47.85
2023-01-08T18:53:59.355Z,47.74
2023-01-08T18:56:30.816Z,47.82
2023-01-08T18:58:57.859Z,47.40
2023-01-08T19:01:24.797Z,47.30
2023-01-08T19:03:51.661Z,47.54
2023-01-08T19:06:18.430Z,47.39
2023-01-08T19:08:45.288Z,47.44
2023-01-08T19:11:12.338Z,47.20
2023-01-08T19:13:39.061Z,47.42
2023-01-08T19:17:34.817Z,45.85
2023-01-08T19:20:04.850Z,44.16
2023-01-08T19:22:32.592Z,43.10
2023-01-08T19:24:59.502Z,42.36
2023-01-08T19:27:26.193Z,41.74
2023-01-08T19:29:52.888Z,41.24
2023-01-08T19:32:19.589Z,40.78
2023-01-08T19:34:47.087Z,40.85
2023-01-08T19:37:14.906Z,40.85
2023-01-08T19:39:41.543Z,40.63
2023-01-08T19:42:28.862Z,40.56
2023-01-08T19:44:56.491Z,40.45
2023-01-08T19:47:23.321Z,40.43
2023-01-08T19:49:50.369Z,40.28
2023-01-08T19:52:17.503Z,40.41
2023-01-08T19:54:44.273Z,40.13
2023-01-08T19:57:10.976Z,40.32
2023-01-08T19:59:37.717Z,40.31
2023-01-08T20:02:04.485Z,40.64
2023-01-08T20:04:31.873Z,40.48
2023-01-08T20:06:59.323Z,40.38
2023-01-08T20:09:38.485Z,40.43
2023-01-08T20:12:06.464Z,40.45
2023-01-08T20:14:34.268Z,40.35
2023-01-08T20:17:01.377Z,40.47
2023-01-08T20:19:36.260Z,40.12
2023-01-08T20:22:12.297Z,40.09
2023-01-08T20:24:53.971Z,40.60
2023-01-08T20:27:28.384Z,40.45
2023-01-08T20:29:55.960Z,40.13
2023-01-08T20:32:23.549Z,40.00
2023-01-08T20:34:50.480Z,40.33
2023-01-08T20:37:17.230Z,40.28
2023-01-08T20:39:43.896Z,40.10
2023-01-08T20:42:12.387Z,39.99
2023-01-08T20:44:43.975Z,40.48
2023-01-08T20:47:10.751Z,40.58
2023-01-08T20:49:37.489Z,40.21
2023-01-08T20:52:04.394Z,40.39
2023-01-08T20:54:31.544Z,40.38
2023-01-08T20:56:58.421Z,40.48
2023-01-08T20:59:25.241Z,40.30
2023-01-08T21:01:52.204Z,40.15
2023-01-08T21:04:24.218Z,40.00
2023-01-08T21:06:51.821Z,40.27
2023-01-08T21:09:18.638Z,40.28
2023-01-08T21:11:45.920Z,40.19
2023-01-08T21:14:12.698Z,40.27
2023-01-08T21:16:40.540Z,40.10
2023-01-08T21:19:10.203Z,39.98
2023-01-08T21:21:39.964Z,40.14
2023-01-08T21:24:09.021Z,39.87
2023-01-08T21:26:36.923Z,39.94
2023-01-08T21:29:03.758Z,39.91
2023-01-08T21:31:30.635Z,40.06
2023-01-08T21:33:58.196Z,39.99
2023-01-08T21:36:26.493Z,40.04
2023-01-08T21:38:53.264Z,39.91
2023-01-08T21:41:57.243Z,39.88
2023-01-08T21:44:43.754Z,40.01
2023-01-08T21:47:16.643Z,39.92
2023-01-08T21:49:43.780Z,40.04
2023-01-08T21:52:29.137Z,40.04
2023-01-08T21:54:57.981Z,39.78
2023-01-08T21:57:27.536Z,40.08
2023-01-08T21:59:54.274Z,39.93
2023-01-08T22:02:22.018Z,39.84
2023-01-08T22:04:48.625Z,39.79
2023-01-08T22:07:15.537Z,39.89
2023-01-08T22:09:42.163Z,39.70
2023-01-08T22:12:08.796Z,39.84
2023-01-08T22:14:35.493Z,39.82
2023-01-08T22:17:04.136Z,39.79
2023-01-08T22:19:30.937Z,39.80
2023-01-08T22:21:57.568Z,39.52
2023-01-08T22:24:24.110Z,39.79
2023-01-08T22:26:50.756Z,40.02
2023-01-08T22:29:17.499Z,39.93
2023-01-08T22:31:44.154Z,39.94
2023-01-08T22:34:14.204Z,39.95
2023-01-08T22:36:40.824Z,39.82
2023-01-08T22:39:07.449Z,39.78
2023-01-08T22:41:34.079Z,39.66
2023-01-08T22:44:00.814Z,39.68
2023-01-08T22:46:27.387Z,39.56
2023-01-08T22:48:53.983Z,39.79
2023-01-08T22:51:27.109Z,39.70
2023-01-08T22:53:57.616Z,39.80
2023-01-08T22:56:24.417Z,39.65
2023-01-08T22:58:51.021Z,39.67
2023-01-08T23:01:25.132Z,39.86
2023-01-08T23:03:52.727Z,39.79
2023-01-08T23:06:19.942Z,40.02
2023-01-08T23:08:46.669Z,39.75
2023-01-08T23:11:15.217Z,39.77
2023-01-08T23:13:41.866Z,39.64
2023-01-08T23:16:09.449Z,39.80
2023-01-08T23:18:36.243Z,39.58
2023-01-08T23:21:03.881Z,39.79
2023-01-08T23:23:30.555Z,39.77
2023-01-08T23:25:57.099Z,39.72
2023-01-08T23:28:23.710Z,39.72
2023-01-08T23:30:50.282Z,39.52
2023-01-08T23:33:16.889Z,39.72
2023-01-08T23:35:43.463Z,40.11
2023-01-08T23:38:10.009Z,39.81
2023-01-08T23:40:36.556Z,39.97
2023-01-08T23:43:03.178Z,39.79
2023-01-08T23:45:29.745Z,39.75
2023-01-08T23:47:56.328Z,39.85
2023-01-08T23:50:22.889Z,39.80
2023-01-08T23:52:49.495Z,39.84
2023-01-08T23:55:16.159Z,39.90
2023-01-08T23:57:42.746Z,39.90
